Albertson, New York
Current Conditions -  °F | °C
As of 2:51 AM on Sunday 21 Dec 2014 (Local Time) from KJFK Reporting Station
Overcast Overcast  
Wind Chill: 28°   Ceiling: 2700
Heat Index: 34°   Visibility: 10mi
Dew Point: 22°   Wind: 7mph
Humidity: 61%   Direction: 20°NNE
Pressure: 30.29"   Gusts: NA
Location:  40.77°N, 73.65°W
Report Text: KJFK 210751Z 02006KT 10SM OVC027 01/M06 A3029 RMK AO2 SLP256 T00111056 $
Loading
Personal Weather Stations






























Interactive Weather Map New forecast layout! Learn more

10-Day Weather Forecast

Advertisements
Track Severe Weather on mobile